FranceFixed distance
Luchon Aneto Trail - L'Ultra Lat
8–9 Jul2023
Distance
85km
Finishers
211196 men15 women
Winning time
9:57:48h
Median pace
5.23km/h
Pace distribution
211 finishers · 4.33–8.53 km/h · mean 5.33
Every finisher ran the same 85 km course, so these paces are directly comparable.
Histogram of finisher pace. 211 finishers ranged from 4.33 to 8.53 kilometres per hour, with a mean of 5.33 and a median of 5.23. The busiest band is 4.5 to 5.0 kilometres per hour, with 68 finishers.
Results
Ranks 101–150 of 211
| Rank | Runner | Time | Pace | Cat. | Placing |
|---|---|---|---|---|---|
| 101 | Team Trail Cholet | 16:07:23h | 5.27 | M45 | 97th M · 13th M45 |
| 102 | Pessac Triathlon | 16:07:35h | 5.27 | M55 | 98th M · 4th M55 |
| 103 | Athle 632 | 16:10:11h | 5.26 | M45 | 99th M · 14th M45 |
| 104 | Aizkorri Mendi Elkartea | 16:12:31h | 5.24 | M50 | 100th M · 10th M50 |
| 105 | 16:12:55h | 5.24 | M23 | 101st M · 33rd M23 | |
| 106 | 16:14:51h | 5.23 | M40 | 102nd M · 19th M40 | |
| 107 | Ouirun la Rochelle - D... | 16:17:55h | 5.21 | M35 | 103rd M · 23rd M35 |
| 108 | 16:19:53h | 5.21 | M23 | 104th M · 34th M23 | |
| 109 | Crbp Raid31 | 16:19:57h | 5.20 | M50 | 105th M · 11th M50 |
| 110 | Crewstach | 16:20:45h | 5.20 | M40 | 106th M · 20th M40 |
| 111 | 16:21:03h | 5.20 | M23 | 107th M · 35th M23 | |
| 112 | Athle 632 | 16:21:36h | 5.20 | M35 | 108th M · 24th M35 |
| 113 | S/L Athle 632 Tournefe... | 16:25:17h | 5.18 | M40 | 109th M · 21st M40 |
| 114 | les Eperviers - Daher | 16:25:51h | 5.17 | M45 | 110th M · 15th M45 |
| 115 | Spuc | 16:29:42h | 5.15 | M40 | 111th M · 22nd M40 |
| 116 | OFF Road X-Perience | 16:31:02h | 5.15 | M40 | 112th M · 23rd M40 |
| 117 | Airbus Running | 16:31:38h | 5.14 | M55 | 113th M · 5th M55 |
| 118 | Ultramical 86 | 16:35:17h | 5.12 | W40 | 5th F · 1st W40 |
| 119 | les Foulees du Bassin ... | 16:37:46h | 5.11 | M45 | 114th M · 16th M45 |
| 119 | 16:37:46h | 5.11 | M35 | 114th M · 25th M35 | |
| 121 | 16:38:28h | 5.11 | M60 | 116th M · 1st M60 | |
| 122 | 16:45:26h | 5.07 | M35 | 117th M · 26th M35 | |
| 123 | 16:45:27h | 5.07 | M40 | 118th M · 24th M40 | |
| 124 | 16:47:45h | 5.06 | M23 | 119th M · 36th M23 | |
| 125 | LE BOL D'Air Gignacois | 16:53:32h | 5.03 | W40 | 6th F · 2nd W40 |
| 126 | JAB | 16:55:34h | 5.02 | M40 | 120th M · 25th M40 |
| 127 | 16:57:31h | 5.01 | M45 | 121st M · 17th M45 | |
| 128 | 16:58:42h | 5.01 | M35 | 122nd M · 27th M35 | |
| 128 | ACM Running Club | 16:58:42h | 5.01 | M35 | 122nd M · 27th M35 |
| 130 | Ultramical 86 | 17:00:27h | 5.00 | W50 | 7th F · 1st W50 |
| 131 | 17:03:52h | 4.98 | M40 | 124th M · 26th M40 | |
| 132 | 17:05:22h | 4.97 | M35 | 125th M · 29th M35 | |
| 133 | 17:06:01h | 4.97 | M23 | 126th M · 37th M23 | |
| 134 | Coureurs du Pignada | 17:07:34h | 4.96 | M23 | 127th M · 38th M23 |
| 135 | Aventures Running Sego... | 17:07:56h | 4.96 | M45 | 128th M · 18th M45 |
| 136 | 17:09:17h | 4.96 | M35 | 129th M · 30th M35 | |
| 137 | 17:11:56h | 4.94 | M45 | 130th M · 19th M45 | |
| 138 | ES Oxygene Blanquefort | 17:12:21h | 4.94 | M40 | 131st M · 27th M40 |
| 139 | 17:15:28h | 4.92 | M45 | 132nd M · 20th M45 | |
| 140 | 17:16:25h | 4.92 | M23 | 133rd M · 39th M23 | |
| 141 | les Baudets du Poitou | 17:17:35h | 4.92 | W40 | 8th F · 3rd W40 |
| 142 | Team Trail Cholet | 17:17:48h | 4.91 | M60 | 134th M · 2nd M60 |
| 143 | 17:18:28h | 4.91 | M35 | 135th M · 31st M35 | |
| 144 | AB Trail | 17:21:15h | 4.90 | W40 | 9th F · 4th W40 |
| 145 | Akuma | 17:26:55h | 4.87 | M45 | 136th M · 21st M45 |
| 146 | Stade Toulousain Athle... | 17:28:04h | 4.87 | M35 | 137th M · 32nd M35 |
| 147 | Athletic Club du Pays ... | 17:32:52h | 4.84 | M40 | 138th M · 28th M40 |
| 148 | AR SUD LAC | 17:33:34h | 4.84 | M35 | 139th M · 33rd M35 |
| 149 | Arsudlac | 17:33:35h | 4.84 | M45 | 140th M · 22nd M45 |
| 150 | Elan D'Armagnac | 17:34:29h | 4.84 | M50 | 141st M · 12th M50 |
- 101Team Trail Cholet97th M · 13th M45Time16:07:23hPace5.27Cat.M45
- 102Pessac Triathlon98th M · 4th M55Time16:07:35hPace5.27Cat.M55
- 103Athle 63299th M · 14th M45Time16:10:11hPace5.26Cat.M45
- 104Aizkorri Mendi Elkartea100th M · 10th M50Time16:12:31hPace5.24Cat.M50
- 105101st M · 33rd M23Time16:12:55hPace5.24Cat.M23
- 106102nd M · 19th M40Time16:14:51hPace5.23Cat.M40
- 107Ouirun la Rochelle - D...103rd M · 23rd M35Time16:17:55hPace5.21Cat.M35
- 108104th M · 34th M23Time16:19:53hPace5.21Cat.M23
- 109Crbp Raid31105th M · 11th M50Time16:19:57hPace5.20Cat.M50
- 110Crewstach106th M · 20th M40Time16:20:45hPace5.20Cat.M40
- 111107th M · 35th M23Time16:21:03hPace5.20Cat.M23
- 112Athle 632108th M · 24th M35Time16:21:36hPace5.20Cat.M35
- 113S/L Athle 632 Tournefe...109th M · 21st M40Time16:25:17hPace5.18Cat.M40
- 114les Eperviers - Daher110th M · 15th M45Time16:25:51hPace5.17Cat.M45
- 115Spuc111th M · 22nd M40Time16:29:42hPace5.15Cat.M40
- 116OFF Road X-Perience112th M · 23rd M40Time16:31:02hPace5.15Cat.M40
- 117Airbus Running113th M · 5th M55Time16:31:38hPace5.14Cat.M55
- 118Ultramical 865th F · 1st W40Time16:35:17hPace5.12Cat.W40
- 119les Foulees du Bassin ...114th M · 16th M45Time16:37:46hPace5.11Cat.M45
- 119114th M · 25th M35Time16:37:46hPace5.11Cat.M35
- 121116th M · 1st M60Time16:38:28hPace5.11Cat.M60
- 122117th M · 26th M35Time16:45:26hPace5.07Cat.M35
- 123118th M · 24th M40Time16:45:27hPace5.07Cat.M40
- 124119th M · 36th M23Time16:47:45hPace5.06Cat.M23
- 125LE BOL D'Air Gignacois6th F · 2nd W40Time16:53:32hPace5.03Cat.W40
- 126JAB120th M · 25th M40Time16:55:34hPace5.02Cat.M40
- 127121st M · 17th M45Time16:57:31hPace5.01Cat.M45
- 128122nd M · 27th M35Time16:58:42hPace5.01Cat.M35
- 128ACM Running Club122nd M · 27th M35Time16:58:42hPace5.01Cat.M35
- 130Ultramical 867th F · 1st W50Time17:00:27hPace5.00Cat.W50
- 131124th M · 26th M40Time17:03:52hPace4.98Cat.M40
- 132125th M · 29th M35Time17:05:22hPace4.97Cat.M35
- 133126th M · 37th M23Time17:06:01hPace4.97Cat.M23
- 134Coureurs du Pignada127th M · 38th M23Time17:07:34hPace4.96Cat.M23
- 135Aventures Running Sego...128th M · 18th M45Time17:07:56hPace4.96Cat.M45
- 136129th M · 30th M35Time17:09:17hPace4.96Cat.M35
- 137130th M · 19th M45Time17:11:56hPace4.94Cat.M45
- 138ES Oxygene Blanquefort131st M · 27th M40Time17:12:21hPace4.94Cat.M40
- 139132nd M · 20th M45Time17:15:28hPace4.92Cat.M45
- 140133rd M · 39th M23Time17:16:25hPace4.92Cat.M23
- 141les Baudets du Poitou8th F · 3rd W40Time17:17:35hPace4.92Cat.W40
- 142Team Trail Cholet134th M · 2nd M60Time17:17:48hPace4.91Cat.M60
- 143135th M · 31st M35Time17:18:28hPace4.91Cat.M35
- 144AB Trail9th F · 4th W40Time17:21:15hPace4.90Cat.W40
- 145Akuma136th M · 21st M45Time17:26:55hPace4.87Cat.M45
- 146Stade Toulousain Athle...137th M · 32nd M35Time17:28:04hPace4.87Cat.M35
- 147Athletic Club du Pays ...138th M · 28th M40Time17:32:52hPace4.84Cat.M40
- 148AR SUD LAC139th M · 33rd M35Time17:33:34hPace4.84Cat.M35
- 149Arsudlac140th M · 22nd M45Time17:33:35hPace4.84Cat.M45
- 150Elan D'Armagnac141st M · 12th M50Time17:34:29hPace4.84Cat.M50
Showing ranks 101–150 of 211